Have a Safe July 4th! 

Flight Track Log - Related Links

Times and Time Zones

All times are in EDT time to prevent confusion due to time zone crossing. See the UAL165 flight status page for this flight to view local times or setup timezone preferences in your user account.

Time Position Orientation Groundspeed Altitude Reporting Facility
EDT Latitude Longitude Course Direction KTS MPH feet Rate Location/Type
Sun 05:41:02 PM 13.4833 144.8167 299° West 170 196 1,400  Level Guam Center
Sun 05:42:02 PM 13.5333 144.7833 327° Northwest 260 299 3,400 2,600 Climbing Guam Center
Sun 05:43:00 PM 13.7755 144.6199 320° Northwest  Level Estimated
Sun 05:43:02 PM 13.6000 144.7167 316° Northwest 290 334 6,600  Level Guam Center
Sun 05:44:00 PM 13.8726 144.5608 316° Northwest  Level Estimated
Sun 05:44:03 PM 13.6667 144.6667 324° Northwest 300 345 10,200  Level Guam Center
Sun 05:45:00 PM 13.9698 144.5016 318° Northwest  Level Estimated
Sun 05:45:03 PM 13.7333 144.6000 316° Northwest 340 391 12,200  Level Guam Center
Sun 05:46:00 PM 14.0246 144.3998 299° West  Level FlightAware Approximate
Sun 05:46:03 PM 13.8000 144.5333 316° Northwest 370 426 14,900  Level Guam Center
Sun 05:47:03 PM 13.8833 144.4667 322° Northwest 390 449 17,000 2,250 Climbing Guam Center
Sun 05:48:03 PM 13.9667 144.3833 316° Northwest 400 460 19,400 2,300 Climbing Guam Center
Sun 05:49:03 PM 14.0500 144.3000 316° Northwest 410 472 21,600 2,033 Climbing Guam Center
Sun 05:50:04 PM 14.1167 144.2333 316° Northwest 420 483 23,500 1,850 Climbing Guam Center
Sun 05:51:03 PM 14.2167 144.1500 321° Northwest 440 506 25,300 1,815 Climbing Guam Center
Sun 05:52:03 PM 14.3167 144.0667 321° Northwest 450 518 27,100 1,686 Climbing Guam Center
Sun 05:53:04 PM 14.4000 143.9833 316° Northwest 450 518 28,700 1,339 Climbing Guam Center
Sun 05:54:04 PM 14.5000 143.8833 316° Northwest 460 529 29,800 1,200 Climbing Guam Center
Sun 05:55:04 PM 14.6000 143.8000 321° Northwest 470 541 31,100 1,650 Climbing Guam Center
Sun 05:56:04 PM 14.6833 143.7000 311° West 470 541 33,100 1,750 Climbing Guam Center
Sun 05:57:04 PM 14.7833 143.6167 321° Northwest 450 518 34,600 1,400 Climbing Guam Center
Sun 05:58:04 PM 14.8833 143.5333 321° Northwest 450 518 35,900 1,289 Climbing Guam Center
Sun 05:59:05 PM 14.9667 143.4500 316° Northwest 440 506 37,200 1,289 Climbing Guam Center
Sun 06:00:05 PM 15.0500 143.3667 316° Northwest 440 506 38,500 750 Climbing Guam Center
Sun 06:01:05 PM 15.1500 143.2833 321° Northwest 430 495 38,700 250 Climbing Guam Center
Sun 06:02:05 PM 15.2333 143.2000 316° Northwest 430 495 39,000 150 Climbing Guam Center
Sun 06:03:05 PM 15.3333 143.1167 321° Northwest 440 506 39,000  Level Guam Center
Sun 06:04:06 PM 15.4167 143.0333 316° Northwest 430 495 39,000  Level Guam Center
Sun 06:05:06 PM 15.5000 142.9333 311° West 430 495 39,000  Level Guam Center
Sun 06:06:06 PM 15.6167 142.8333 320° Northwest 430 495 39,000  Level Guam Center
Sun 06:07:06 PM 15.7000 142.7500 316° Northwest 430 495 39,000  Level Guam Center
Sun 06:08:06 PM 15.7833 142.6667 316° Northwest 430 495 39,000  Level Guam Center
Sun 06:09:06 PM 15.8667 142.5833 316° Northwest 430 495 39,000  Level Guam Center
Sun 06:10:07 PM 15.9667 142.5000 321° Northwest 430 495 39,000  Level Guam Center
Sun 06:11:06 PM 16.0500 142.4167 316° Northwest 430 495 39,000  Level Guam Center
Sun 06:12:06 PM 16.1333 142.3333 316° Northwest 430 495 39,000  Level Guam Center
Sun 06:13:07 PM 16.2000 142.2667 316° Northwest 420 483 39,000  Level Guam Center
Sun 06:15:00 PM 16.3648 142.1267 321° Northwest  Level FlightAware Approximate
Sun 06:16:07 PM 16.4833 142.0000 321° Northwest 430 495 39,000  Level Guam Center
Sun 06:17:07 PM 16.5500 141.9333 316° Northwest 420 483 39,000 168 Level Guam Center
Sun 06:19:00 PM 16.7234 141.8022 319° Northwest  Level FlightAware Approximate
Sun 06:22:05 PM 16.5833 141.9500 319° Northwest 415 478 40,000  Level Oakland Oceanic (ODAPS)
Sun 06:26:00 PM 17.3201 141.2625 319° Northwest  Level FlightAware Approximate
Sun 06:27:00 PM 17.4052 141.1851 319° Northwest  Level FlightAware Approximate
Sun 06:28:00 PM 17.5434 141.0764 319° Northwest 415 478 40,000  Level FlightAware Transoceanic
Sun 06:29:00 PM 17.6305 140.9965 319° Northwest 415 478 40,000  Level FlightAware Transoceanic
Sun 06:30:00 PM 17.7176 140.9165 319° Northwest 415 478 40,000  Level FlightAware Transoceanic
Sun 06:31:00 PM 17.8046 140.8365 319° Northwest 415 478 40,000  Level FlightAware Transoceanic
Sun 06:32:00 PM 17.8916 140.7564 319° Northwest 415 478 40,000  Level FlightAware Transoceanic
Sun 06:33:00 PM 17.9786 140.6762 319° Northwest 415 478 40,000  Level FlightAware Transoceanic
Sun 06:34:00 PM 18.0655 140.5960 319° Northwest 415 478 40,000  Level FlightAware Transoceanic
Sun 06:35:00 PM 18.1524 140.5156 319° Northwest 415 478 40,000  Level FlightAware Transoceanic
Sun 06:36:00 PM 18.2393 140.4352 319° Northwest 415 478 40,000  Level FlightAware Transoceanic
Sun 06:37:00 PM 18.3261 140.3547 319° Northwest 415 478 40,000  Level FlightAware Transoceanic
Sun 06:38:00 PM 18.4129 140.2741 319° Northwest 415 478 40,000  Level FlightAware Transoceanic
Sun 06:39:00 PM 18.4996 140.1934 319° Northwest 415 478 40,000  Level FlightAware Transoceanic
Sun 06:40:00 PM 18.5864 140.1127 319° Northwest 415 478 40,000  Level FlightAware Transoceanic
Sun 06:41:00 PM 18.6731 140.0319 319° Northwest 415 478 40,000  Level FlightAware Transoceanic
Sun 06:42:00 PM 18.7597 139.9509 319° Northwest 415 478 40,000  Level FlightAware Transoceanic
Sun 06:43:00 PM 18.8463 139.8699 318° Northwest 415 478 40,000  Level FlightAware Transoceanic
Sun 06:44:00 PM 18.9329 139.7889 318° Northwest 415 478 40,000  Level FlightAware Transoceanic
Sun 06:45:00 PM 19.0195 139.7077 318° Northwest 415 478 40,000  Level FlightAware Transoceanic
Sun 06:46:00 PM 19.1060 139.6265 318° Northwest 415 478 40,000  Level FlightAware Transoceanic
Sun 06:47:00 PM 19.1925 139.5451 318° Northwest 415 478 40,000  Level FlightAware Transoceanic
Sun 06:48:00 PM 19.2789 139.4637 318° Northwest 415 478 40,000  Level FlightAware Transoceanic
Sun 06:49:00 PM 19.3653 139.3822 318° Northwest 415 478 40,000  Level FlightAware Transoceanic
Sun 06:50:00 PM 19.4517 139.3006 318° Northwest 415 478 40,000  Level FlightAware Transoceanic
Sun 06:51:00 PM 19.5381 139.2189 318° Northwest 415 478 40,000  Level FlightAware Transoceanic
Sun 06:52:00 PM 19.6244 139.1372 318° Northwest 415 478 40,000  Level FlightAware Transoceanic
Sun 06:53:00 PM 19.7106 139.0553 318° Northwest 415 478 40,000  Level FlightAware Transoceanic
Sun 06:54:00 PM 19.7969 138.9734 318° Northwest 415 478 40,000  Level FlightAware Transoceanic
Sun 06:55:00 PM 19.8830 138.8914 318° Northwest 415 478 40,000  Level FlightAware Transoceanic
Sun 06:56:00 PM 19.9692 138.8092 318° Northwest 415 478 40,000  Level FlightAware Transoceanic
Sun 06:57:00 PM 20.0553 138.7270 318° Northwest 415 478 40,000  Level FlightAware Transoceanic
Sun 06:58:00 PM 20.1414 138.6447 318° Northwest 415 478 40,000  Level FlightAware Transoceanic
Sun 06:59:00 PM 20.2274 138.5623 318° Northwest 415 478 40,000  Level FlightAware Transoceanic
Sun 07:00:00 PM 20.3134 138.4799 318° Northwest 415 478 40,000  Level FlightAware Transoceanic
Sun 07:01:00 PM 20.3994 138.3973 318° Northwest 415 478 40,000  Level FlightAware Transoceanic
Sun 07:02:00 PM 20.4853 138.3146 318° Northwest 415 478 40,000  Level FlightAware Transoceanic
Sun 07:03:00 PM 20.5712 138.2319 318° Northwest 415 478 40,000  Level FlightAware Transoceanic
Sun 07:04:00 PM 20.6570 138.1490 318° Northwest 415 478 40,000  Level FlightAware Transoceanic
Sun 07:05:00 PM 20.7428 138.0661 318° Northwest 415 478 40,000  Level FlightAware Transoceanic
Sun 07:06:00 PM 20.8286 137.9830 318° Northwest 415 478 40,000  Level FlightAware Transoceanic
Sun 07:07:00 PM 20.9143 137.8999 318° Northwest 415 478 40,000  Level FlightAware Transoceanic
Sun 07:08:00 PM 21.0000 137.8167 330° Northwest 415 478 40,000  Level FlightAware Transoceanic
Sun 07:09:00 PM 21.1005 137.7557 330° Northwest 415 478 40,000  Level FlightAware Transoceanic
Sun 07:10:00 PM 21.2010 137.6946 330° Northwest 415 478 40,000  Level FlightAware Transoceanic
Sun 07:11:00 PM 21.3015 137.6335 330° Northwest 415 478 40,000  Level FlightAware Transoceanic
Sun 07:12:00 PM 21.4020 137.5723 330° Northwest 415 478 40,000  Level FlightAware Transoceanic
Sun 07:13:00 PM 21.5024 137.5110 330° Northwest 415 478 40,000  Level FlightAware Transoceanic
Sun 07:14:00 PM 21.6028 137.4496 330° Northwest 415 478 40,000  Level FlightAware Transoceanic
Sun 07:15:00 PM 21.7032 137.3881 330° Northwest 415 478 40,000  Level FlightAware Transoceanic
Sun 07:16:00 PM 21.8036 137.3265 330° Northwest 415 478 40,000  Level FlightAware Transoceanic
Sun 07:17:00 PM 21.9039 137.2649 330° Northwest 415 478 40,000  Level FlightAware Transoceanic
Sun 07:18:00 PM 22.0043 137.2032 330° Northwest 415 478 40,000  Level FlightAware Transoceanic
Sun 07:19:00 PM 22.1046 137.1413 330° Northwest 415 478 40,000  Level FlightAware Transoceanic
Sun 07:20:00 PM 22.2049 137.0794 330° Northwest 415 478 40,000  Level FlightAware Transoceanic
Sun 07:21:00 PM 22.3051 137.0174 330° Northwest 415 478 40,000  Level FlightAware Transoceanic
Sun 07:22:00 PM 22.4053 136.9553 330° Northwest 415 478 40,000  Level FlightAware Transoceanic
Sun 07:23:00 PM 22.5056 136.8932 330° Northwest 415 478 40,000  Level FlightAware Transoceanic
Sun 07:24:00 PM 22.6057 136.8309 330° Northwest 415 478 40,000  Level FlightAware Transoceanic
Sun 07:25:00 PM 22.7059 136.7685 330° Northwest 415 478 40,000  Level FlightAware Transoceanic
Sun 07:26:00 PM 22.8060 136.7061 330° Northwest 415 478 40,000  Level FlightAware Transoceanic
Sun 07:27:00 PM 22.9062 136.6436 330° Northwest 415 478 40,000  Level FlightAware Transoceanic
Sun 07:28:00 PM 23.0062 136.5809 330° Northwest 415 478 40,000  Level FlightAware Transoceanic
Sun 07:29:00 PM 23.1063 136.5182 330° Northwest 415 478 40,000  Level FlightAware Transoceanic
Sun 07:30:00 PM 23.2063 136.4554 330° Northwest 415 478 40,000  Level FlightAware Transoceanic
Sun 07:31:00 PM 23.3064 136.3925 330° Northwest 415 478 40,000  Level FlightAware Transoceanic
Sun 07:32:00 PM 23.4063 136.3294 330° Northwest 415 478 40,000  Level FlightAware Transoceanic
Sun 07:33:00 PM 23.5063 136.2663 330° Northwest 415 478 40,000  Level FlightAware Transoceanic
Sun 07:34:00 PM 23.6062 136.2031 330° Northwest 415 478 40,000  Level FlightAware Transoceanic
Sun 07:35:00 PM 23.7062 136.1398 330° Northwest 415 478 40,000  Level FlightAware Transoceanic
Sun 07:36:00 PM 23.8060 136.0764 330° Northwest 415 478 40,000  Level FlightAware Transoceanic
Sun 07:37:00 PM 23.9059 136.0130 330° Northwest 415 478 40,000  Level FlightAware Transoceanic
Sun 07:38:00 PM 24.0057 135.9494 330° Northwest 415 478 40,000  Level FlightAware Transoceanic
Sun 07:39:00 PM 24.1055 135.8857 330° Northwest 415 478 40,000  Level FlightAware Transoceanic
Sun 07:40:00 PM 24.2053 135.8219 330° Northwest 415 478 40,000  Level FlightAware Transoceanic
Sun 07:41:00 PM 24.3051 135.7580 330° Northwest 415 478 40,000  Level FlightAware Transoceanic
Sun 07:42:00 PM 24.4048 135.6940 330° Northwest 415 478 40,000  Level FlightAware Transoceanic
Sun 07:43:00 PM 24.5045 135.6299 330° Northwest 415 478 40,000  Level FlightAware Transoceanic
Sun 07:44:00 PM 24.6042 135.5657 330° Northwest 415 478 40,000  Level FlightAware Transoceanic
Sun 07:45:00 PM 24.7038 135.5014 330° Northwest 415 478 40,000  Level FlightAware Transoceanic
Sun 07:46:00 PM 24.8034 135.4370 330° Northwest 415 478 40,000  Level FlightAware Transoceanic
Sun 07:47:00 PM 24.9030 135.3725 330° Northwest 415 478 40,000  Level FlightAware Transoceanic
Sun 07:48:00 PM 25.0026 135.3079 330° Northwest 415 478 40,000  Level FlightAware Transoceanic
Sun 07:49:00 PM 25.1021 135.2432 329° Northwest 415 478 40,000  Level FlightAware Transoceanic
Sun 07:50:00 PM 25.2017 135.1784 329° Northwest 415 478 40,000  Level FlightAware Transoceanic
Sun 07:51:00 PM 25.3011 135.1135 329° Northwest 415 478 40,000  Level FlightAware Transoceanic
Sun 07:52:00 PM 25.4006 135.0485 329° Northwest 415 478 40,000  Level FlightAware Transoceanic
Sun 07:53:00 PM 25.4887 134.9791 325° Northwest  Level FlightAware Approximate
Sun 07:54:00 PM 25.4006 135.0484 145° Southeast  Level FlightAware Approximate
Sun 07:55:00 PM 25.4985 134.9979 329° Northwest  Level Estimated
Sun 07:56:00 PM 25.5909 134.9358 329° Northwest  Level FlightAware Approximate
Sun 07:57:00 PM 25.6833 134.8736 329° Northwest  Level FlightAware Approximate
Sun 07:58:00 PM 25.7756 134.8112 329° Northwest  Level FlightAware Approximate
Sun 07:59:00 PM 25.8679 134.7488 329° Northwest  Level FlightAware Approximate
Sun 08:00:00 PM 25.9601 134.6862 329° Northwest  Level FlightAware Approximate
Sun 08:01:00 PM 26.0524 134.6236 329° Northwest  Level FlightAware Approximate
Sun 08:02:00 PM 26.1446 134.5609 329° Northwest  Level FlightAware Approximate
Sun 08:03:00 PM 26.2368 134.4980 329° Northwest  Level FlightAware Approximate
Sun 08:04:00 PM 26.3290 134.4351 329° Northwest  Level FlightAware Approximate
Sun 08:05:00 PM 26.4211 134.3721 329° Northwest  Level FlightAware Approximate
Sun 08:06:00 PM 26.5132 134.3090 328° Northwest  Level FlightAware Approximate
Sun 08:07:00 PM 26.6053 134.2457 328° Northwest  Level FlightAware Approximate
Sun 08:08:00 PM 26.6973 134.1824 328° Northwest  Level FlightAware Approximate
Sun 08:09:00 PM 26.7894 134.1190 328° Northwest  Level FlightAware Approximate
Sun 08:10:00 PM 26.8813 134.0554 328° Northwest  Level FlightAware Approximate
Sun 08:11:00 PM 26.9733 133.9918 328° Northwest  Level FlightAware Approximate
Sun 08:12:00 PM 27.0653 133.9280 328° Northwest  Level FlightAware Approximate
Sun 08:13:00 PM 27.1572 133.8642 328° Northwest  Level FlightAware Approximate
Sun 08:14:00 PM 27.2490 133.8002 328° Northwest  Level FlightAware Approximate
Sun 08:15:00 PM 27.3409 133.7362 328° Northwest  Level FlightAware Approximate
Sun 08:16:00 PM 27.4327 133.6720 328° Northwest  Level FlightAware Approximate
Sun 08:17:00 PM 27.5245 133.6077 328° Northwest  Level FlightAware Approximate
Sun 08:18:00 PM 27.6163 133.5433 328° Northwest  Level FlightAware Approximate
Sun 08:19:00 PM 27.7080 133.4788 328° Northwest  Level FlightAware Approximate
Sun 08:20:00 PM 27.7997 133.4142 328° Northwest  Level FlightAware Approximate
Sun 08:21:00 PM 27.8914 133.3495 328° Northwest  Level FlightAware Approximate
Sun 08:22:00 PM 27.9830 133.2847 328° Northwest  Level FlightAware Approximate
Sun 08:23:00 PM 28.0746 133.2198 328° Northwest  Level FlightAware Approximate
Sun 08:24:00 PM 28.1662 133.1547 328° Northwest  Level FlightAware Approximate
Sun 08:25:00 PM 28.2577 133.0896 328° Northwest  Level FlightAware Approximate
Sun 08:26:00 PM 28.3577 133.0429 328° Northwest  Level Estimated
Sun 08:27:00 PM 28.4487 132.9768 327° Northwest  Level FlightAware Approximate
Sun 08:28:00 PM 28.5398 132.9106 327° Northwest  Level FlightAware Approximate
Sun 08:29:00 PM 28.6308 132.8442 327° Northwest  Level FlightAware Approximate
Sun 08:30:00 PM 28.7218 132.7778 327° Northwest  Level FlightAware Approximate
Sun 08:31:00 PM 28.8128 132.7112 327° Northwest  Level FlightAware Approximate
Sun 08:32:00 PM 28.9037 132.6445 327° Northwest  Level FlightAware Approximate
Sun 08:33:00 PM 28.9946 132.5777 327° Northwest  Level FlightAware Approximate
Sun 08:34:00 PM 29.0854 132.5108 327° Northwest  Level FlightAware Approximate
Sun 08:35:00 PM 29.1763 132.4438 327° Northwest  Level FlightAware Approximate
Sun 08:36:00 PM 29.2670 132.3766 327° Northwest  Level FlightAware Approximate
Sun 08:37:00 PM 29.3578 132.3094 327° Northwest  Level FlightAware Approximate
Sun 08:38:00 PM 29.4485 132.2420 327° Northwest  Level FlightAware Approximate
Sun 08:39:00 PM 29.5502 132.1999 327° Northwest  Level Estimated
Sun 08:40:00 PM 29.6393 132.1296 326° Northwest  Level FlightAware Approximate
Sun 08:41:00 PM 29.7283 132.0591 326° Northwest  Level FlightAware Approximate
Sun 08:42:00 PM 29.8173 131.9885 325° Northwest  Level FlightAware Approximate
Sun 08:43:00 PM 29.9063 131.9178 325° Northwest  Level FlightAware Approximate
Sun 08:44:00 PM 29.9953 131.8470 325° Northwest  Level FlightAware Approximate
Sun 08:45:00 PM 30.0842 131.7760 325° Northwest  Level FlightAware Approximate
Sun 08:46:00 PM 30.1872 131.7385 328° Northwest  Level Estimated
Sun 08:47:00 PM 30.2774 131.6695 327° Northwest  Level FlightAware Approximate
Sun 08:48:00 PM 30.3675 131.6004 327° Northwest  Level FlightAware Approximate
Sun 08:49:00 PM 30.4576 131.5312 326° Northwest  Level FlightAware Approximate
Sun 08:50:00 PM 30.5476 131.4619 326° Northwest  Level FlightAware Approximate
Sun 08:51:00 PM 30.6376 131.3924 326° Northwest  Level FlightAware Approximate
Sun 08:51:43 PM 30.8770 131.0910 326° Northwest 40,000  Level FlightAware ADS-B
Sun 08:52:00 PM 30.7276 131.3228 326° Northwest  Level FlightAware Approximate
Sun 08:52:23 PM 30.9490 131.0590 339° North 410 472 40,000  Level FlightAware ADS-B
Sun 08:53:03 PM 31.0200 131.0270 339° North 409 471 40,000 -212 Level FlightAware ADS-B
Sun 08:53:48 PM 31.0970 130.9930 339° North 411 473 39,700 -667 Descending FlightAware ADS-B
Sun 08:54:33 PM 31.1810 130.9560 339° North 408 470 39,000 -988 Descending FlightAware ADS-B
Sun 08:55:13 PM 31.2490 130.9250 339° North 403 464 38,300 -706 Descending FlightAware ADS-B
Sun 08:55:58 PM 31.3260 130.8910 339° North 412 474 38,000 -212 Descending FlightAware ADS-B
Sun 08:56:38 PM 31.4000 130.8580 339° North 415 478 38,000  Level FlightAware ADS-B
Sun 08:57:18 PM 31.4690 130.8270 339° North 417 480 38,000  Level FlightAware ADS-B
Sun 08:58:03 PM 31.5540 130.7890 339° North 418 481 38,000  Level FlightAware ADS-B
Sun 08:58:43 PM 31.6270 130.7560 339° North 418 481 38,000  Level FlightAware ADS-B
Sun 08:59:28 PM 31.7060 130.7200 339° North 418 481 38,000  Level FlightAware ADS-B
Sun 09:00:08 PM 31.7820 130.6860 339° North 418 481 38,000  Level FlightAware ADS-B
Sun 09:00:48 PM 31.8520 130.6540 339° North 422 486 38,000  Level FlightAware ADS-B
Sun 09:01:33 PM 31.9350 130.6170 339° North 422 486 38,000  Level FlightAware ADS-B
Sun 09:02:13 PM 32.0040 130.5850 339° North 419 482 38,000  Level FlightAware ADS-B
Sun 09:02:58 PM 32.0890 130.5470 339° North 418 481 38,000  Level FlightAware ADS-B
Sun 09:03:38 PM 32.1620 130.5140 339° North 417 480 38,000  Level FlightAware ADS-B
Sun 09:04:18 PM 32.2300 130.4830 339° North 414 476 38,000  Level FlightAware ADS-B
Sun 09:04:58 PM 32.3020 130.4500 339° North 414 476 38,000  Level FlightAware ADS-B
Sun 09:05:43 PM 32.3850 130.4120 339° North 412 474 38,000  Level FlightAware ADS-B
Sun 09:06:23 PM 32.4500 130.3820 339° North 411 473 38,000 -706 Level FlightAware ADS-B
Sun 09:07:08 PM 32.5260 130.3460 338° Northwest 398 458 37,000 -2,329 Descending FlightAware ADS-B
Sun 09:07:48 PM 32.5990 130.3130 339° North 394 453 34,700 -3,106 Descending FlightAware ADS-B
Sun 09:08:33 PM 32.6690 130.2810 339° North 397 457 32,600 -2,753 Descending FlightAware ADS-B
Sun 09:09:13 PM 32.7440 130.2470 339° North 394 453 30,800 -2,541 Descending FlightAware ADS-B
Sun 09:09:58 PM 32.8200 130.2110 338° Northwest 381 438 29,000 -2,400 Descending FlightAware ADS-B
Sun 09:10:38 PM 32.8860 130.1810 339° North 364 419 27,400 -2,400 Descending FlightAware ADS-B
Sun 09:11:18 PM 32.9500 130.1510 339° North 365 420 25,800 -2,329 Descending FlightAware ADS-B
Sun 09:12:03 PM 33.0190 130.1190 339° North 350 403 24,100 -2,188 Descending FlightAware ADS-B
Sun 09:12:43 PM 33.0800 130.0910 339° North 347 399 22,700 -2,118 Descending FlightAware ADS-B
Sun 09:13:28 PM 33.1460 130.0600 339° North 327 376 21,100 -2,118 Descending FlightAware ADS-B
Sun 09:14:08 PM 33.2030 130.0330 338° Northwest 333 383 19,700 -2,100 Descending FlightAware ADS-B
Sun 09:14:48 PM 33.2610 130.0060 339° North 328 377 18,300 -2,509 Descending FlightAware ADS-B
Sun 09:15:03 PM 33.2840 130.0010 350° North 337 388 17,400 -2,945 Descending FlightAware ADS-B
Sun 09:15:43 PM 33.3480 130.0000 359° North 335 386 15,600 -2,800 Descending FlightAware ADS-B
Sun 09:16:18 PM 33.4020 129.9990 359° North 335 386 13,900 -2,800 Descending FlightAware ADS-B
Sun 09:16:58 PM 33.4690 130.0000 North 339 390 12,100 -1,875 Descending FlightAware ADS-B
Sun 09:17:38 PM 33.5290 130.0010 North 305 351 11,400 -975 Descending FlightAware ADS-B
Sun 09:18:18 PM 33.5800 130.0040 North 270 311 10,800 -1,200 Descending FlightAware ADS-B
Sun 09:18:48 PM 33.6180 130.0070 North 260 299 10,000 -1,745 Descending FlightAware ADS-B
Sun 09:19:13 PM 33.6480 130.0090 North 259 298 9,200 -1,950 Descending FlightAware ADS-B
Sun 09:19:28 PM 33.6660 130.0100 North 263 303 8,700 -2,250 Descending FlightAware ADS-B
Sun 09:19:53 PM 33.6950 130.0130 North 273 314 7,700 -2,040 Descending FlightAware ADS-B
Sun 09:20:18 PM 33.7180 130.0140 North 278 320 7,000 -1,855 Descending FlightAware ADS-B
Sun 09:20:48 PM 33.7630 130.0220 North 280 322 6,000 -1,754 Descending FlightAware ADS-B
Sun 09:21:23 PM 33.8020 130.0480 29° Northeast 280 322 5,100 -1,527 Descending FlightAware ADS-B
Sun 09:21:43 PM 33.8260 130.0640 29° Northeast 278 320 4,600 -933 Descending FlightAware ADS-B
Sun 09:22:08 PM 33.8490 130.0790 28° Northeast 260 299 4,400 -240 Descending FlightAware ADS-B
Sun 09:22:33 PM 33.8740 130.0950 28° Northeast 260 299 4,400 -840 Level FlightAware ADS-B
Sun 09:22:58 PM 33.8880 130.1370 68° East 237 273 3,700 -1,200 Descending FlightAware ADS-B
Sun 09:23:23 PM 33.8920 130.1690 81° East 226 260 3,400 -800 Descending FlightAware ADS-B
Sun 09:23:43 PM 33.8860 130.1920 107° East 217 250 3,100 -933 Descending FlightAware ADS-B
Sun 09:24:08 PM 33.8760 130.2140 119° Southeast 214 246 2,700 -982 Descending FlightAware ADS-B
Sun 09:24:38 PM 33.8610 130.2450 120° Southeast 208 239 2,200 -840 Descending FlightAware ADS-B
Sun 09:24:58 PM 33.8490 130.2660 125° Southeast 202 232 2,000 -267 Descending FlightAware ADS-B
Sun 09:25:23 PM 33.8340 130.2870 131° Southeast 202 232 2,000  Level FlightAware ADS-B
Sun 09:25:38 PM 33.8230 130.2880 176° South 2,000  Level FlightAware ADS-B
Sun 09:25:53 PM 33.8110 130.2980 145° Southeast 198 228 2,000  Level FlightAware ADS-B
Sun 09:26:18 PM 33.7930 130.3120 147° Southeast 198 228 2,000  Level FlightAware ADS-B
Sun 09:26:53 PM 33.7610 130.3310 154° Southeast 200 230 2,000  Level FlightAware ADS-B
Sun 09:27:03 PM 33.7580 130.3330 151° Southeast 202 232 2,000  Level FlightAware ADS-B
Sun 09:27:28 PM 33.7300 130.3530 149° Southeast 201 231 2,000  Level FlightAware ADS-B
Sun 09:28:18 PM 33.6940 130.3770 151° Southeast 189 217 2,000 -160 Level FlightAware ADS-B
Sun 09:28:43 PM 33.6740 130.3910 150° Southeast 166 191 1,800 -600 Descending FlightAware ADS-B
Sun 09:29:18 PM 33.6520 130.4060 150° Southeast 144 166 1,400 -764 Descending FlightAware ADS-B
Sun 09:29:38 PM 33.6430 130.4120 151° Southeast 141 162 1,100 -800 Descending FlightAware ADS-B
Sun 09:30:03 PM 33.6260 130.4230 152° Southeast 144 166 800 -462 Descending FlightAware ADS-B
Sun 09:30:43 PM 33.6050 130.4380 149° Southeast 146 168 600 -300 Descending FlightAware ADS-B

Login

Don't have an account? Register now (free) for customized features, flight alerts, and more!